sensor_id;sensor_type;location;lat;lon;timestamp;P1;durP1;ratioP1;P2;durP2;ratioP2
52268;SDS011;38224;50.950;4.100;2023-05-15T00:00:08;65.80;;;35.78;;
52268;SDS011;38224;50.950;4.100;2023-05-15T00:02:36;58.47;;;34.70;;
52268;SDS011;38224;50.950;4.100;2023-05-15T00:05:05;62.10;;;35.92;;
52268;SDS011;38224;50.950;4.100;2023-05-15T00:07:31;62.58;;;36.10;;
52268;SDS011;38224;50.950;4.100;2023-05-15T00:09:57;62.75;;;34.95;;
52268;SDS011;38224;50.950;4.100;2023-05-15T00:12:22;55.67;;;34.90;;
52268;SDS011;38224;50.950;4.100;2023-05-15T00:14:47;56.90;;;34.17;;
52268;SDS011;38224;50.950;4.100;2023-05-15T00:17:12;70.87;;;37.07;;
52268;SDS011;38224;50.950;4.100;2023-05-15T00:19:38;61.33;;;36.70;;
52268;SDS011;38224;50.950;4.100;2023-05-15T00:22:03;62.70;;;37.10;;
52268;SDS011;38224;50.950;4.100;2023-05-15T00:24:28;63.33;;;36.45;;
52268;SDS011;38224;50.950;4.100;2023-05-15T00:26:54;58.75;;;36.53;;
52268;SDS011;38224;50.950;4.100;2023-05-15T00:29:19;62.37;;;35.80;;
52268;SDS011;38224;50.950;4.100;2023-05-15T00:31:44;68.00;;;36.58;;
52268;SDS011;38224;50.950;4.100;2023-05-15T00:34:10;64.05;;;37.90;;
52268;SDS011;38224;50.950;4.100;2023-05-15T00:36:35;68.10;;;38.30;;
52268;SDS011;38224;50.950;4.100;2023-05-15T00:39:00;64.10;;;37.67;;
52268;SDS011;38224;50.950;4.100;2023-05-15T00:41:26;66.57;;;38.05;;
52268;SDS011;38224;50.950;4.100;2023-05-15T00:43:52;61.63;;;37.30;;
52268;SDS011;38224;50.950;4.100;2023-05-15T00:46:19;63.65;;;35.80;;
52268;SDS011;38224;50.950;4.100;2023-05-15T00:48:45;67.63;;;36.85;;
52268;SDS011;38224;50.950;4.100;2023-05-15T00:51:10;65.53;;;37.75;;
52268;SDS011;38224;50.950;4.100;2023-05-15T00:53:36;67.40;;;36.88;;
52268;SDS011;38224;50.950;4.100;2023-05-15T00:56:02;67.28;;;38.17;;
52268;SDS011;38224;50.950;4.100;2023-05-15T00:58:29;62.05;;;37.30;;
52268;SDS011;38224;50.950;4.100;2023-05-15T01:00:55;65.38;;;37.22;;
52268;SDS011;38224;50.950;4.100;2023-05-15T01:03:20;67.00;;;36.15;;
52268;SDS011;38224;50.950;4.100;2023-05-15T01:05:45;60.90;;;36.72;;
52268;SDS011;38224;50.950;4.100;2023-05-15T01:08:22;62.80;;;36.78;;
52268;SDS011;38224;50.950;4.100;2023-05-15T01:10:50;65.00;;;37.78;;
52268;SDS011;38224;50.950;4.100;2023-05-15T01:13:15;60.45;;;36.10;;
52268;SDS011;38224;50.950;4.100;2023-05-15T01:15:43;69.07;;;39.67;;
52268;SDS011;38224;50.950;4.100;2023-05-15T01:18:08;62.63;;;38.33;;
52268;SDS011;38224;50.950;4.100;2023-05-15T01:20:38;67.63;;;38.60;;
52268;SDS011;38224;50.950;4.100;2023-05-15T01:23:09;70.32;;;38.45;;
52268;SDS011;38224;50.950;4.100;2023-05-15T01:28:08;66.07;;;38.88;;
52268;SDS011;38224;50.950;4.100;2023-05-15T01:30:35;69.82;;;38.83;;
52268;SDS011;38224;50.950;4.100;2023-05-15T01:33:07;66.97;;;39.80;;
52268;SDS011;38224;50.950;4.100;2023-05-15T01:35:56;71.28;;;39.88;;
52268;SDS011;38224;50.950;4.100;2023-05-15T01:38:28;71.18;;;41.38;;
52268;SDS011;38224;50.950;4.100;2023-05-15T01:41:03;67.00;;;38.90;;
52268;SDS011;38224;50.950;4.100;2023-05-15T01:43:29;74.50;;;40.28;;
52268;SDS011;38224;50.950;4.100;2023-05-15T01:45:56;71.50;;;40.80;;
52268;SDS011;38224;50.950;4.100;2023-05-15T01:48:21;72.53;;;41.20;;
52268;SDS011;38224;50.950;4.100;2023-05-15T01:50:48;69.18;;;39.35;;
52268;SDS011;38224;50.950;4.100;2023-05-15T01:53:15;73.75;;;40.22;;
52268;SDS011;38224;50.950;4.100;2023-05-15T01:55:41;73.95;;;41.33;;
52268;SDS011;38224;50.950;4.100;2023-05-15T01:58:06;70.43;;;39.35;;
52268;SDS011;38224;50.950;4.100;2023-05-15T02:00:32;70.05;;;41.63;;
52268;SDS011;38224;50.950;4.100;2023-05-15T02:02:58;72.30;;;42.97;;
52268;SDS011;38224;50.950;4.100;2023-05-15T02:05:24;73.68;;;42.67;;
52268;SDS011;38224;50.950;4.100;2023-05-15T02:07:50;72.07;;;41.03;;
52268;SDS011;38224;50.950;4.100;2023-05-15T02:10:15;78.47;;;43.28;;
52268;SDS011;38224;50.950;4.100;2023-05-15T02:12:41;71.63;;;41.45;;
52268;SDS011;38224;50.950;4.100;2023-05-15T02:15:07;72.80;;;41.45;;
52268;SDS011;38224;50.950;4.100;2023-05-15T02:17:33;76.53;;;42.13;;
52268;SDS011;38224;50.950;4.100;2023-05-15T02:19:59;80.47;;;42.90;;
52268;SDS011;38224;50.950;4.100;2023-05-15T02:22:24;83.28;;;44.28;;
52268;SDS011;38224;50.950;4.100;2023-05-15T02:24:49;77.15;;;44.83;;
52268;SDS011;38224;50.950;4.100;2023-05-15T02:27:28;74.95;;;45.03;;
52268;SDS011;38224;50.950;4.100;2023-05-15T02:35:15;79.75;;;44.75;;
52268;SDS011;38224;50.950;4.100;2023-05-15T02:37:43;73.55;;;42.28;;
52268;SDS011;38224;50.950;4.100;2023-05-15T02:40:10;81.13;;;45.50;;
52268;SDS011;38224;50.950;4.100;2023-05-15T02:42:36;76.90;;;43.95;;
52268;SDS011;38224;50.950;4.100;2023-05-15T02:45:02;84.43;;;46.83;;
52268;SDS011;38224;50.950;4.100;2023-05-15T02:47:27;80.78;;;45.45;;
52268;SDS011;38224;50.950;4.100;2023-05-15T02:49:53;78.07;;;45.33;;
52268;SDS011;38224;50.950;4.100;2023-05-15T02:52:18;75.40;;;44.40;;
52268;SDS011;38224;50.950;4.100;2023-05-15T02:54:43;77.10;;;46.95;;
52268;SDS011;38224;50.950;4.100;2023-05-15T02:57:09;83.22;;;46.65;;
52268;SDS011;38224;50.950;4.100;2023-05-15T02:59:34;78.30;;;46.40;;
52268;SDS011;38224;50.950;4.100;2023-05-15T03:01:59;78.57;;;46.08;;
52268;SDS011;38224;50.950;4.100;2023-05-15T03:04:24;79.17;;;44.97;;
52268;SDS011;38224;50.950;4.100;2023-05-15T03:06:50;84.68;;;47.90;;
52268;SDS011;38224;50.950;4.100;2023-05-15T03:09:15;87.47;;;48.27;;
52268;SDS011;38224;50.950;4.100;2023-05-15T03:11:40;80.50;;;45.43;;
52268;SDS011;38224;50.950;4.100;2023-05-15T03:14:06;91.32;;;49.95;;
52268;SDS011;38224;50.950;4.100;2023-05-15T03:16:31;88.83;;;47.00;;
52268;SDS011;38224;50.950;4.100;2023-05-15T03:18:56;91.77;;;49.37;;
52268;SDS011;38224;50.950;4.100;2023-05-15T03:21:21;93.67;;;49.10;;
52268;SDS011;38224;50.950;4.100;2023-05-15T03:23:46;96.10;;;49.40;;
52268;SDS011;38224;50.950;4.100;2023-05-15T03:26:12;92.03;;;48.90;;
52268;SDS011;38224;50.950;4.100;2023-05-15T03:28:37;96.65;;;48.13;;
52268;SDS011;38224;50.950;4.100;2023-05-15T03:31:02;90.90;;;47.03;;
52268;SDS011;38224;50.950;4.100;2023-05-15T03:33:32;87.05;;;46.67;;
52268;SDS011;38224;50.950;4.100;2023-05-15T03:35:58;89.07;;;48.50;;
52268;SDS011;38224;50.950;4.100;2023-05-15T03:38:23;89.07;;;49.00;;
52268;SDS011;38224;50.950;4.100;2023-05-15T03:40:48;82.73;;;46.27;;
52268;SDS011;38224;50.950;4.100;2023-05-15T03:43:13;86.75;;;45.72;;
52268;SDS011;38224;50.950;4.100;2023-05-15T03:45:39;89.13;;;46.40;;
52268;SDS011;38224;50.950;4.100;2023-05-15T03:48:04;93.57;;;46.47;;
52268;SDS011;38224;50.950;4.100;2023-05-15T03:50:29;87.30;;;46.22;;
52268;SDS011;38224;50.950;4.100;2023-05-15T03:52:55;93.32;;;50.05;;
52268;SDS011;38224;50.950;4.100;2023-05-15T03:55:20;88.63;;;47.50;;
52268;SDS011;38224;50.950;4.100;2023-05-15T03:57:45;94.30;;;47.00;;
52268;SDS011;38224;50.950;4.100;2023-05-15T04:00:11;91.35;;;47.10;;
52268;SDS011;38224;50.950;4.100;2023-05-15T04:02:36;86.65;;;45.55;;
52268;SDS011;38224;50.950;4.100;2023-05-15T04:05:02;85.68;;;44.92;;
52268;SDS011;38224;50.950;4.100;2023-05-15T04:07:28;86.97;;;45.92;;
52268;SDS011;38224;50.950;4.100;2023-05-15T04:09:54;84.70;;;45.90;;
52268;SDS011;38224;50.950;4.100;2023-05-15T04:12:19;84.50;;;45.20;;
52268;SDS011;38224;50.950;4.100;2023-05-15T04:14:45;84.45;;;44.03;;
52268;SDS011;38224;50.950;4.100;2023-05-15T04:17:10;83.87;;;46.13;;
52268;SDS011;38224;50.950;4.100;2023-05-15T04:19:35;81.00;;;45.37;;
52268;SDS011;38224;50.950;4.100;2023-05-15T04:22:01;77.90;;;43.83;;
52268;SDS011;38224;50.950;4.100;2023-05-15T04:24:26;86.17;;;44.90;;
52268;SDS011;38224;50.950;4.100;2023-05-15T04:26:51;82.77;;;44.97;;
52268;SDS011;38224;50.950;4.100;2023-05-15T04:29:16;82.22;;;43.63;;
52268;SDS011;38224;50.950;4.100;2023-05-15T04:31:42;68.27;;;38.83;;
52268;SDS011;38224;50.950;4.100;2023-05-15T04:34:07;78.38;;;42.42;;
52268;SDS011;38224;50.950;4.100;2023-05-15T04:36:32;78.53;;;41.55;;
52268;SDS011;38224;50.950;4.100;2023-05-15T04:38:58;78.07;;;41.60;;
52268;SDS011;38224;50.950;4.100;2023-05-15T04:41:24;69.90;;;40.75;;
52268;SDS011;38224;50.950;4.100;2023-05-15T04:43:50;78.05;;;42.63;;
52268;SDS011;38224;50.950;4.100;2023-05-15T04:46:16;73.07;;;41.42;;
52268;SDS011;38224;50.950;4.100;2023-05-15T04:48:41;74.37;;;40.97;;
52268;SDS011;38224;50.950;4.100;2023-05-15T04:51:06;66.93;;;39.87;;
52268;SDS011;38224;50.950;4.100;2023-05-15T04:53:31;72.90;;;40.37;;
52268;SDS011;38224;50.950;4.100;2023-05-15T04:55:57;64.67;;;38.37;;
52268;SDS011;38224;50.950;4.100;2023-05-15T04:58:22;65.88;;;38.72;;
52268;SDS011;38224;50.950;4.100;2023-05-15T05:00:47;63.73;;;36.13;;
52268;SDS011;38224;50.950;4.100;2023-05-15T05:03:12;60.33;;;35.40;;
52268;SDS011;38224;50.950;4.100;2023-05-15T05:05:38;66.20;;;35.87;;
52268;SDS011;38224;50.950;4.100;2023-05-15T05:08:03;65.53;;;34.73;;
52268;SDS011;38224;50.950;4.100;2023-05-15T05:10:28;61.22;;;35.70;;
52268;SDS011;38224;50.950;4.100;2023-05-15T05:12:53;66.37;;;36.17;;
52268;SDS011;38224;50.950;4.100;2023-05-15T05:15:19;65.35;;;36.85;;
52268;SDS011;38224;50.950;4.100;2023-05-15T05:17:44;65.00;;;36.20;;
52268;SDS011;38224;50.950;4.100;2023-05-15T05:20:10;75.28;;;40.42;;
52268;SDS011;38224;50.950;4.100;2023-05-15T05:22:35;75.18;;;39.60;;
52268;SDS011;38224;50.950;4.100;2023-05-15T05:25:01;71.82;;;39.25;;
52268;SDS011;38224;50.950;4.100;2023-05-15T05:27:26;69.75;;;38.95;;
52268;SDS011;38224;50.950;4.100;2023-05-15T05:29:52;66.78;;;36.70;;
52268;SDS011;38224;50.950;4.100;2023-05-15T05:32:18;65.50;;;35.83;;
52268;SDS011;38224;50.950;4.100;2023-05-15T05:34:43;63.17;;;34.88;;
52268;SDS011;38224;50.950;4.100;2023-05-15T05:37:08;79.63;;;39.55;;
52268;SDS011;38224;50.950;4.100;2023-05-15T05:39:34;66.53;;;35.25;;
52268;SDS011;38224;50.950;4.100;2023-05-15T05:41:59;68.57;;;36.25;;
52268;SDS011;38224;50.950;4.100;2023-05-15T05:44:24;68.07;;;38.28;;
52268;SDS011;38224;50.950;4.100;2023-05-15T05:46:50;71.57;;;37.97;;
52268;SDS011;38224;50.950;4.100;2023-05-15T05:49:16;68.78;;;37.45;;
52268;SDS011;38224;50.950;4.100;2023-05-15T05:51:43;70.20;;;38.30;;
52268;SDS011;38224;50.950;4.100;2023-05-15T05:54:09;65.28;;;34.67;;
52268;SDS011;38224;50.950;4.100;2023-05-15T05:56:34;67.72;;;37.17;;
52268;SDS011;38224;50.950;4.100;2023-05-15T05:59:00;65.20;;;35.40;;
52268;SDS011;38224;50.950;4.100;2023-05-15T06:01:26;73.07;;;38.25;;
52268;SDS011;38224;50.950;4.100;2023-05-15T06:03:51;74.20;;;39.00;;
52268;SDS011;38224;50.950;4.100;2023-05-15T06:06:16;76.10;;;38.40;;
52268;SDS011;38224;50.950;4.100;2023-05-15T06:08:42;76.10;;;37.00;;
52268;SDS011;38224;50.950;4.100;2023-05-15T06:11:07;78.17;;;38.47;;
52268;SDS011;38224;50.950;4.100;2023-05-15T06:13:32;77.67;;;37.70;;
52268;SDS011;38224;50.950;4.100;2023-05-15T06:15:58;69.88;;;34.35;;
52268;SDS011;38224;50.950;4.100;2023-05-15T06:18:23;82.97;;;37.17;;
52268;SDS011;38224;50.950;4.100;2023-05-15T06:20:48;75.20;;;37.13;;
52268;SDS011;38224;50.950;4.100;2023-05-15T06:23:13;74.20;;;35.80;;
52268;SDS011;38224;50.950;4.100;2023-05-15T06:25:39;69.30;;;33.53;;
52268;SDS011;38224;50.950;4.100;2023-05-15T06:28:04;72.07;;;33.88;;
52268;SDS011;38224;50.950;4.100;2023-05-15T06:30:29;71.30;;;33.72;;
52268;SDS011;38224;50.950;4.100;2023-05-15T06:32:55;87.80;;;41.10;;
52268;SDS011;38224;50.950;4.100;2023-05-15T06:35:20;79.63;;;36.13;;
52268;SDS011;38224;50.950;4.100;2023-05-15T06:37:48;75.53;;;36.50;;
52268;SDS011;38224;50.950;4.100;2023-05-15T06:40:14;84.32;;;36.80;;
52268;SDS011;38224;50.950;4.100;2023-05-15T06:42:40;79.30;;;37.38;;
52268;SDS011;38224;50.950;4.100;2023-05-15T06:45:05;76.68;;;35.88;;
52268;SDS011;38224;50.950;4.100;2023-05-15T06:47:30;75.28;;;34.90;;
52268;SDS011;38224;50.950;4.100;2023-05-15T06:49:56;74.03;;;34.75;;
52268;SDS011;38224;50.950;4.100;2023-05-15T06:52:21;67.90;;;33.70;;
52268;SDS011;38224;50.950;4.100;2023-05-15T06:54:46;74.63;;;34.22;;
52268;SDS011;38224;50.950;4.100;2023-05-15T06:57:12;69.00;;;32.78;;
52268;SDS011;38224;50.950;4.100;2023-05-15T06:59:37;64.25;;;31.90;;
52268;SDS011;38224;50.950;4.100;2023-05-15T07:02:03;72.60;;;32.20;;
52268;SDS011;38224;50.950;4.100;2023-05-15T07:04:28;67.88;;;34.25;;
52268;SDS011;38224;50.950;4.100;2023-05-15T07:06:55;65.70;;;34.42;;
52268;SDS011;38224;50.950;4.100;2023-05-15T07:09:20;69.13;;;33.80;;
52268;SDS011;38224;50.950;4.100;2023-05-15T07:11:45;65.93;;;33.53;;
52268;SDS011;38224;50.950;4.100;2023-05-15T07:14:11;61.90;;;31.57;;
52268;SDS011;38224;50.950;4.100;2023-05-15T07:16:36;67.47;;;32.45;;
52268;SDS011;38224;50.950;4.100;2023-05-15T07:19:01;65.67;;;32.70;;
52268;SDS011;38224;50.950;4.100;2023-05-15T07:21:26;62.97;;;33.43;;
52268;SDS011;38224;50.950;4.100;2023-05-15T07:23:52;62.83;;;33.40;;
52268;SDS011;38224;50.950;4.100;2023-05-15T07:26:17;65.07;;;33.07;;
52268;SDS011;38224;50.950;4.100;2023-05-15T07:28:42;70.93;;;32.75;;
52268;SDS011;38224;50.950;4.100;2023-05-15T07:31:07;62.10;;;33.90;;
52268;SDS011;38224;50.950;4.100;2023-05-15T07:33:33;70.38;;;33.50;;
52268;SDS011;38224;50.950;4.100;2023-05-15T07:35:58;66.60;;;31.90;;
52268;SDS011;38224;50.950;4.100;2023-05-15T07:38:23;61.47;;;32.50;;
52268;SDS011;38224;50.950;4.100;2023-05-15T07:40:49;60.72;;;32.58;;
52268;SDS011;38224;50.950;4.100;2023-05-15T07:43:14;63.10;;;31.48;;
52268;SDS011;38224;50.950;4.100;2023-05-15T07:45:39;60.03;;;30.55;;
52268;SDS011;38224;50.950;4.100;2023-05-15T07:48:18;62.92;;;31.67;;
52268;SDS011;38224;50.950;4.100;2023-05-15T07:50:44;64.30;;;32.35;;
52268;SDS011;38224;50.950;4.100;2023-05-15T07:53:13;64.47;;;32.25;;
52268;SDS011;38224;50.950;4.100;2023-05-15T07:55:40;63.50;;;29.98;;
52268;SDS011;38224;50.950;4.100;2023-05-15T07:58:06;69.05;;;32.58;;
52268;SDS011;38224;50.950;4.100;2023-05-15T08:00:32;65.38;;;31.65;;
52268;SDS011;38224;50.950;4.100;2023-05-15T08:02:58;68.00;;;31.48;;
52268;SDS011;38224;50.950;4.100;2023-05-15T08:05:23;57.17;;;29.70;;
52268;SDS011;38224;50.950;4.100;2023-05-15T08:07:49;57.43;;;28.60;;
52268;SDS011;38224;50.950;4.100;2023-05-15T08:10:14;58.58;;;28.02;;
52268;SDS011;38224;50.950;4.100;2023-05-15T08:12:40;60.30;;;28.67;;
52268;SDS011;38224;50.950;4.100;2023-05-15T08:15:10;59.10;;;27.75;;
52268;SDS011;38224;50.950;4.100;2023-05-15T08:17:35;58.60;;;28.65;;
52268;SDS011;38224;50.950;4.100;2023-05-15T08:20:00;58.17;;;30.02;;
52268;SDS011;38224;50.950;4.100;2023-05-15T08:22:26;56.45;;;27.70;;
52268;SDS011;38224;50.950;4.100;2023-05-15T08:24:54;59.95;;;27.48;;
52268;SDS011;38224;50.950;4.100;2023-05-15T08:27:22;56.53;;;28.77;;
52268;SDS011;38224;50.950;4.100;2023-05-15T08:29:47;54.28;;;27.50;;
52268;SDS011;38224;50.950;4.100;2023-05-15T08:32:12;60.67;;;27.37;;
52268;SDS011;38224;50.950;4.100;2023-05-15T08:34:38;60.08;;;28.60;;
52268;SDS011;38224;50.950;4.100;2023-05-15T08:37:03;55.47;;;26.67;;
52268;SDS011;38224;50.950;4.100;2023-05-15T08:39:28;50.90;;;25.67;;
52268;SDS011;38224;50.950;4.100;2023-05-15T08:44:31;53.28;;;26.00;;
52268;SDS011;38224;50.950;4.100;2023-05-15T08:46:57;51.65;;;25.13;;
52268;SDS011;38224;50.950;4.100;2023-05-15T08:49:30;50.47;;;26.13;;
52268;SDS011;38224;50.950;4.100;2023-05-15T08:51:57;51.78;;;25.60;;
52268;SDS011;38224;50.950;4.100;2023-05-15T08:54:22;52.42;;;25.58;;
52268;SDS011;38224;50.950;4.100;2023-05-15T08:56:48;51.78;;;25.35;;
52268;SDS011;38224;50.950;4.100;2023-05-15T08:59:13;55.55;;;25.67;;
52268;SDS011;38224;50.950;4.100;2023-05-15T09:01:39;54.47;;;25.80;;
52268;SDS011;38224;50.950;4.100;2023-05-15T09:04:04;57.30;;;25.50;;
52268;SDS011;38224;50.950;4.100;2023-05-15T09:06:29;56.17;;;27.55;;
52268;SDS011;38224;50.950;4.100;2023-05-15T09:08:56;57.65;;;28.00;;
52268;SDS011;38224;50.950;4.100;2023-05-15T09:11:23;56.53;;;27.23;;
52268;SDS011;38224;50.950;4.100;2023-05-15T09:13:48;55.75;;;28.25;;
52268;SDS011;38224;50.950;4.100;2023-05-15T09:16:13;58.00;;;27.15;;
52268;SDS011;38224;50.950;4.100;2023-05-15T09:18:39;58.28;;;27.77;;
52268;SDS011;38224;50.950;4.100;2023-05-15T09:21:26;56.38;;;27.55;;
52268;SDS011;38224;50.950;4.100;2023-05-15T09:23:56;59.85;;;28.10;;
52268;SDS011;38224;50.950;4.100;2023-05-15T09:26:37;58.60;;;28.50;;
52268;SDS011;38224;50.950;4.100;2023-05-15T09:29:03;58.67;;;29.08;;
52268;SDS011;38224;50.950;4.100;2023-05-15T09:31:28;57.60;;;28.77;;
52268;SDS011;38224;50.950;4.100;2023-05-15T09:33:57;58.50;;;28.52;;
52268;SDS011;38224;50.950;4.100;2023-05-15T09:36:23;62.35;;;29.52;;
52268;SDS011;38224;50.950;4.100;2023-05-15T09:38:48;70.45;;;32.58;;
52268;SDS011;38224;50.950;4.100;2023-05-15T09:41:23;65.55;;;31.33;;
52268;SDS011;38224;50.950;4.100;2023-05-15T09:43:49;59.60;;;27.42;;
52268;SDS011;38224;50.950;4.100;2023-05-15T09:46:14;59.92;;;27.02;;
52268;SDS011;38224;50.950;4.100;2023-05-15T09:48:41;59.70;;;28.70;;
52268;SDS011;38224;50.950;4.100;2023-05-15T09:51:13;63.47;;;29.88;;
52268;SDS011;38224;50.950;4.100;2023-05-15T09:53:38;60.37;;;29.17;;
52268;SDS011;38224;50.950;4.100;2023-05-15T09:56:04;67.93;;;30.23;;
52268;SDS011;38224;50.950;4.100;2023-05-15T09:58:29;62.45;;;30.48;;
52268;SDS011;38224;50.950;4.100;2023-05-15T10:00:54;71.63;;;31.35;;
52268;SDS011;38224;50.950;4.100;2023-05-15T10:03:23;76.55;;;33.53;;
52268;SDS011;38224;50.950;4.100;2023-05-15T10:05:48;73.37;;;30.63;;
52268;SDS011;38224;50.950;4.100;2023-05-15T10:08:14;72.50;;;32.33;;
52268;SDS011;38224;50.950;4.100;2023-05-15T10:10:40;84.28;;;37.38;;
52268;SDS011;38224;50.950;4.100;2023-05-15T10:13:05;87.15;;;35.75;;
52268;SDS011;38224;50.950;4.100;2023-05-15T10:15:31;90.32;;;38.83;;
52268;SDS011;38224;50.950;4.100;2023-05-15T10:17:57;94.03;;;39.15;;
52268;SDS011;38224;50.950;4.100;2023-05-15T10:20:23;95.60;;;39.88;;
52268;SDS011;38224;50.950;4.100;2023-05-15T10:22:49;96.75;;;41.78;;
52268;SDS011;38224;50.950;4.100;2023-05-15T10:28:00;105.90;;;46.45;;
52268;SDS011;38224;50.950;4.100;2023-05-15T10:30:26;116.03;;;49.90;;
52268;SDS011;38224;50.950;4.100;2023-05-15T10:32:52;122.28;;;50.95;;
52268;SDS011;38224;50.950;4.100;2023-05-15T10:35:18;119.40;;;52.45;;
52268;SDS011;38224;50.950;4.100;2023-05-15T10:37:45;116.05;;;49.58;;
52268;SDS011;38224;50.950;4.100;2023-05-15T10:40:11;106.15;;;49.15;;
52268;SDS011;38224;50.950;4.100;2023-05-15T10:42:37;101.70;;;46.55;;
52268;SDS011;38224;50.950;4.100;2023-05-15T10:45:03;107.60;;;46.28;;
52268;SDS011;38224;50.950;4.100;2023-05-15T10:47:29;106.65;;;45.17;;
52268;SDS011;38224;50.950;4.100;2023-05-15T10:49:55;86.63;;;41.95;;
52268;SDS011;38224;50.950;4.100;2023-05-15T10:52:21;88.05;;;39.35;;
52268;SDS011;38224;50.950;4.100;2023-05-15T10:54:46;81.72;;;38.35;;
52268;SDS011;38224;50.950;4.100;2023-05-15T10:57:13;77.35;;;38.08;;
52268;SDS011;38224;50.950;4.100;2023-05-15T10:59:38;77.03;;;38.13;;
52268;SDS011;38224;50.950;4.100;2023-05-15T11:02:21;72.38;;;36.90;;
52268;SDS011;38224;50.950;4.100;2023-05-15T11:04:52;77.63;;;38.28;;
52268;SDS011;38224;50.950;4.100;2023-05-15T11:07:18;81.63;;;37.45;;
52268;SDS011;38224;50.950;4.100;2023-05-15T11:09:44;85.82;;;39.13;;
52268;SDS011;38224;50.950;4.100;2023-05-15T11:12:09;81.72;;;37.65;;
52268;SDS011;38224;50.950;4.100;2023-05-15T11:14:42;84.97;;;38.60;;
52268;SDS011;38224;50.950;4.100;2023-05-15T11:17:11;90.47;;;40.28;;
52268;SDS011;38224;50.950;4.100;2023-05-15T11:27:17;97.35;;;44.08;;
52268;SDS011;38224;50.950;4.100;2023-05-15T11:32:30;94.05;;;41.08;;
52268;SDS011;38224;50.950;4.100;2023-05-15T11:34:58;86.60;;;38.42;;
52268;SDS011;38224;50.950;4.100;2023-05-15T11:37:24;89.05;;;38.28;;
52268;SDS011;38224;50.950;4.100;2023-05-15T11:39:51;84.43;;;37.88;;
52268;SDS011;38224;50.950;4.100;2023-05-15T11:42:16;78.53;;;37.25;;
52268;SDS011;38224;50.950;4.100;2023-05-15T11:44:42;82.57;;;39.72;;
52268;SDS011;38224;50.950;4.100;2023-05-15T11:47:10;84.15;;;39.13;;
52268;SDS011;38224;50.950;4.100;2023-05-15T11:49:36;75.53;;;36.55;;
52268;SDS011;38224;50.950;4.100;2023-05-15T11:52:02;76.78;;;37.13;;
52268;SDS011;38224;50.950;4.100;2023-05-15T11:54:27;79.97;;;38.33;;
52268;SDS011;38224;50.950;4.100;2023-05-15T11:56:53;83.35;;;37.42;;
52268;SDS011;38224;50.950;4.100;2023-05-15T11:59:20;76.97;;;36.60;;
52268;SDS011;38224;50.950;4.100;2023-05-15T12:01:46;79.57;;;38.90;;
52268;SDS011;38224;50.950;4.100;2023-05-15T12:04:12;74.72;;;36.13;;
52268;SDS011;38224;50.950;4.100;2023-05-15T12:06:38;77.18;;;35.30;;
52268;SDS011;38224;50.950;4.100;2023-05-15T12:09:03;67.85;;;32.75;;
52268;SDS011;38224;50.950;4.100;2023-05-15T12:11:28;75.13;;;34.50;;
52268;SDS011;38224;50.950;4.100;2023-05-15T12:13:55;73.82;;;33.22;;
52268;SDS011;38224;50.950;4.100;2023-05-15T12:16:24;58.60;;;29.70;;
52268;SDS011;38224;50.950;4.100;2023-05-15T12:18:50;65.90;;;30.75;;
52268;SDS011;38224;50.950;4.100;2023-05-15T12:21:15;51.10;;;23.75;;
52268;SDS011;38224;50.950;4.100;2023-05-15T12:23:41;34.65;;;17.40;;
52268;SDS011;38224;50.950;4.100;2023-05-15T12:26:13;21.65;;;9.20;;
52268;SDS011;38224;50.950;4.100;2023-05-15T12:28:38;18.00;;;8.40;;
52268;SDS011;38224;50.950;4.100;2023-05-15T12:31:04;16.63;;;7.30;;
52268;SDS011;38224;50.950;4.100;2023-05-15T12:33:29;10.52;;;5.40;;
52268;SDS011;38224;50.950;4.100;2023-05-15T12:35:55;6.95;;;4.45;;
52268;SDS011;38224;50.950;4.100;2023-05-15T12:38:21;6.55;;;3.72;;
52268;SDS011;38224;50.950;4.100;2023-05-15T12:40:46;7.78;;;4.13;;
52268;SDS011;38224;50.950;4.100;2023-05-15T12:43:13;6.55;;;3.60;;
52268;SDS011;38224;50.950;4.100;2023-05-15T12:45:39;6.07;;;3.83;;
52268;SDS011;38224;50.950;4.100;2023-05-15T12:48:04;5.10;;;3.65;;
52268;SDS011;38224;50.950;4.100;2023-05-15T12:50:31;7.75;;;4.25;;
52268;SDS011;38224;50.950;4.100;2023-05-15T12:52:57;10.73;;;4.13;;
52268;SDS011;38224;50.950;4.100;2023-05-15T12:57:49;7.43;;;3.72;;
52268;SDS011;38224;50.950;4.100;2023-05-15T13:00:14;11.30;;;6.05;;
52268;SDS011;38224;50.950;4.100;2023-05-15T13:02:43;6.72;;;4.05;;
52268;SDS011;38224;50.950;4.100;2023-05-15T13:05:09;7.50;;;3.90;;
52268;SDS011;38224;50.950;4.100;2023-05-15T13:07:34;7.82;;;4.30;;
52268;SDS011;38224;50.950;4.100;2023-05-15T13:10:06;11.02;;;4.57;;
52268;SDS011;38224;50.950;4.100;2023-05-15T13:12:38;11.02;;;4.15;;
52268;SDS011;38224;50.950;4.100;2023-05-15T13:15:04;8.63;;;4.38;;
52268;SDS011;38224;50.950;4.100;2023-05-15T13:17:30;8.52;;;4.20;;
52268;SDS011;38224;50.950;4.100;2023-05-15T13:19:55;11.98;;;5.18;;
52268;SDS011;38224;50.950;4.100;2023-05-15T13:22:20;9.40;;;4.57;;
52268;SDS011;38224;50.950;4.100;2023-05-15T13:24:46;9.10;;;4.67;;
52268;SDS011;38224;50.950;4.100;2023-05-15T13:27:11;9.35;;;5.10;;
52268;SDS011;38224;50.950;4.100;2023-05-15T13:29:36;13.48;;;5.38;;
52268;SDS011;38224;50.950;4.100;2023-05-15T13:32:02;14.75;;;4.90;;
52268;SDS011;38224;50.950;4.100;2023-05-15T13:34:27;14.35;;;5.28;;
52268;SDS011;38224;50.950;4.100;2023-05-15T13:36:52;18.15;;;6.03;;
52268;SDS011;38224;50.950;4.100;2023-05-15T13:39:17;10.53;;;6.07;;
52268;SDS011;38224;50.950;4.100;2023-05-15T13:41:43;13.35;;;6.32;;
52268;SDS011;38224;50.950;4.100;2023-05-15T13:44:08;14.53;;;5.87;;
52268;SDS011;38224;50.950;4.100;2023-05-15T13:46:33;10.48;;;5.32;;
52268;SDS011;38224;50.950;4.100;2023-05-15T13:48:59;13.98;;;5.38;;
52268;SDS011;38224;50.950;4.100;2023-05-15T13:51:25;10.65;;;4.30;;
52268;SDS011;38224;50.950;4.100;2023-05-15T13:53:50;14.15;;;4.97;;
52268;SDS011;38224;50.950;4.100;2023-05-15T13:56:15;11.98;;;4.90;;
52268;SDS011;38224;50.950;4.100;2023-05-15T13:58:41;10.45;;;4.70;;
52268;SDS011;38224;50.950;4.100;2023-05-15T14:01:06;11.13;;;4.57;;
52268;SDS011;38224;50.950;4.100;2023-05-15T14:03:31;13.50;;;4.30;;
52268;SDS011;38224;50.950;4.100;2023-05-15T14:05:57;5.85;;;3.88;;
52268;SDS011;38224;50.950;4.100;2023-05-15T14:08:22;12.37;;;4.50;;
52268;SDS011;38224;50.950;4.100;2023-05-15T14:10:47;8.07;;;4.20;;
52268;SDS011;38224;50.950;4.100;2023-05-15T14:13:12;12.87;;;5.30;;
52268;SDS011;38224;50.950;4.100;2023-05-15T14:15:41;9.77;;;4.85;;
52268;SDS011;38224;50.950;4.100;2023-05-15T14:18:06;11.38;;;5.40;;
52268;SDS011;38224;50.950;4.100;2023-05-15T14:20:31;17.25;;;5.45;;
52268;SDS011;38224;50.950;4.100;2023-05-15T14:22:56;9.80;;;5.43;;
52268;SDS011;38224;50.950;4.100;2023-05-15T14:25:22;15.18;;;6.00;;
52268;SDS011;38224;50.950;4.100;2023-05-15T14:27:48;11.30;;;6.07;;
52268;SDS011;38224;50.950;4.100;2023-05-15T14:30:13;16.30;;;5.87;;
52268;SDS011;38224;50.950;4.100;2023-05-15T14:32:38;12.65;;;5.53;;
52268;SDS011;38224;50.950;4.100;2023-05-15T14:35:04;11.27;;;5.00;;
52268;SDS011;38224;50.950;4.100;2023-05-15T14:37:29;10.40;;;5.03;;
52268;SDS011;38224;50.950;4.100;2023-05-15T14:39:55;10.82;;;5.07;;
52268;SDS011;38224;50.950;4.100;2023-05-15T14:42:20;15.90;;;5.55;;